Flight Track Log - Related Links

Times and Time Zones

All times are in EST time to prevent confusion due to time zone crossing. See the N173DS flight status page for this flight to view local times or setup timezone preferences in your user account.

Time Position Orientation Groundspeed Altitude Reporting Facility
EST Latitude Longitude Course Direction KTS MPH feet Rate Location/Type
Fri 04:37:43 PM 35.3786 -97.6058 300° West 140 161 2,100  Level Fort Worth Center
Fri 04:38:32 PM 35.3389 -97.6256 202° Southwest 214 246 4,100 2,414 Climbing Fort Worth Center
Fri 04:39:10 PM 35.3197 -97.6608 236° Southwest 205 236 5,600 2,361 Climbing Fort Worth Center
Fri 04:39:33 PM 35.3228 -97.6875 278° West 224 258 6,500 2,226 Climbing Fort Worth Center
Fri 04:40:12 PM 35.3350 -97.7336 288° West 219 252 7,900 2,020 Climbing Fort Worth Center
Fri 04:41:14 PM 35.3547 -97.8178 286° West 247 284 9,900 1,935 Climbing Fort Worth Center
Fri 04:42:16 PM 35.3778 -97.9172 286° West 296 341 11,900 2,112 Climbing Fort Worth Center
Fri 04:43:00 PM 35.7393 -98.3383 300° West  Level Estimated
Fri 04:43:19 PM 35.4039 -98.0317 286° West 341 392 14,300  Level Fort Worth Center
Fri 04:44:21 PM 35.4319 -98.1553 286° West 372 428 17,600 3,435 Climbing Fort Worth Center
Fri 04:45:23 PM 35.4675 -98.3108 286° West 392 451 21,400 3,194 Climbing Fort Worth Center
Fri 04:46:25 PM 35.5003 -98.4472 286° West 416 479 24,200 2,516 Climbing Fort Worth Center
Fri 04:47:27 PM 35.5817 -98.5372 318° Northwest 432 497 26,600 2,410 Climbing Fort Worth Center
Fri 04:48:22 PM 35.6794 -98.6222 325° Northwest 432 497 28,900 1,744 Climbing Kansas City Center
Fri 04:49:24 PM 35.7881 -98.7228 323° Northwest 444 511 30,000 677 Climbing Kansas City Center
Fri 04:50:26 PM 35.8958 -98.8189 324° Northwest 467 537 30,300 871 Climbing Kansas City Center
Fri 04:51:28 PM 36.0003 -98.9136 324° Northwest 468 539 31,800 1,258 Climbing Kansas City Center
Fri 04:52:30 PM 36.0992 -99.0058 323° Northwest 452 520 32,900 1,500 Climbing Kansas City Center
Fri 04:53:32 PM 36.2006 -99.0961 324° Northwest 448 516 34,900 1,500 Climbing Kansas City Center
Fri 04:54:34 PM 36.3036 -99.1931 323° Northwest 443 510 36,000 532 Climbing Kansas City Center
Fri 04:55:36 PM 36.4056 -99.2883 323° Northwest 454 522 36,000  Level Kansas City Center
Fri 04:56:38 PM 36.5308 -99.4053 323° Northwest 467 537 36,000  Level Kansas City Center
Fri 04:57:40 PM 36.6336 -99.5008 323° Northwest 462 532 36,000  Level Kansas City Center
Fri 04:58:42 PM 36.7375 -99.5961 324° Northwest 462 532 36,000  Level Kansas City Center
Fri 04:59:44 PM 36.8419 -99.6950 323° Northwest 468 539 36,000  Level Kansas City Center
Fri 05:00:47 PM 36.9442 -99.7922 323° Northwest 464 534 36,000  Level Kansas City Center
Fri 05:01:49 PM 37.0458 -99.8867 323° Northwest 454 522 36,000  Level Kansas City Center
Fri 05:02:51 PM 37.1561 -99.9917 323° Northwest 449 517 36,000  Level Kansas City Center
Fri 05:03:53 PM 37.2514 -100.0817 323° Northwest 449 517 36,000  Level Kansas City Center
Fri 05:04:55 PM 37.3633 -100.1928 322° Northwest 457 526 36,000  Level Kansas City Center
Fri 05:05:57 PM 37.4183 -100.3364 296° West 477 549 36,000  Level Kansas City Center
Fri 05:06:59 PM 37.4572 -100.5172 285° West 479 551 36,000  Level Kansas City Center
Fri 05:08:01 PM 37.4933 -100.6722 286° West 480 552 36,000  Level Kansas City Center
Fri 05:09:03 PM 37.5294 -100.8314 286° West 481 554 36,000  Level Kansas City Center
Fri 05:10:05 PM 37.5656 -100.9950 286° West 484 557 36,000  Level Kansas City Center
Fri 05:11:07 PM 37.6067 -101.1731 286° West 483 556 36,000  Level Kansas City Center
Fri 05:12:09 PM 37.6483 -101.3550 286° West 481 554 36,000  Level Kansas City Center
Fri 05:13:11 PM 37.6825 -101.5108 286° West 481 554 36,000  Level Kansas City Center
Fri 05:14:13 PM 37.7239 -101.6919 286° West 481 554 36,000  Level Kansas City Center
Fri 05:15:15 PM 37.7581 -101.8472 286° West 480 552 36,000  Level Kansas City Center
Fri 05:16:17 PM 37.7978 -102.0292 285° West 480 552 36,000  Level Kansas City Center
Fri 05:17:19 PM 37.8317 -102.1847 285° West 481 554 36,000  Level Kansas City Center
Fri 05:18:21 PM 37.8711 -102.3672 285° West 481 554 36,000  Level Kansas City Center
Fri 05:19:23 PM 37.9047 -102.5231 285° West 480 552 36,000  Level Kansas City Center
Fri 05:20:25 PM 37.9436 -102.7053 285° West 481 554 36,000  Level Kansas City Center
Fri 05:21:50 PM 37.9867 -102.9136 285° West 481 554 36,000  Level Denver Center
Fri 05:22:52 PM 38.0256 -103.0953 285° West 479 551 36,000  Level Denver Center
Fri 05:23:54 PM 38.0575 -103.2503 285° West 478 550 36,000  Level Denver Center
Fri 05:24:56 PM 38.0947 -103.4333 285° West 480 552 36,000  Level Denver Center
Fri 05:25:58 PM 38.1269 -103.5897 285° West 481 554 36,000  Level Denver Center
Fri 05:27:00 PM 38.1639 -103.7719 285° West 480 552 36,000  Level Denver Center
Fri 05:28:03 PM 38.1953 -103.9275 284° West 478 550 36,000 -144 Level Denver Center
Fri 05:29:05 PM 38.2314 -104.1103 284° West 479 551 35,700 -823 Descending Denver Center
Fri 05:30:07 PM 38.2625 -104.2675 284° West 481 554 34,300 -1,500 Descending Denver Center
Fri 05:31:09 PM 38.2981 -104.4525 284° West 484 557 32,600 -1,113 Descending Denver Center
Fri 05:32:11 PM 38.3072 -104.6208 274° West 498 573 32,000 -290 Descending Denver Center
Fri 05:33:13 PM 38.3206 -104.8125 275° West 491 565 32,000 -435 Level Denver Center
Fri 05:34:15 PM 38.3433 -104.9714 280° West 474 545 31,100 -1,113 Descending Denver Center
Fri 05:35:17 PM 38.4161 -105.1086 304° West 465 535 29,700 -1,403 Descending Denver Center
Fri 05:36:19 PM 38.4931 -105.2297 309° West 442 509 28,200 -1,548 Descending Denver Center
Fri 05:37:21 PM 38.5761 -105.3636 308° West 414 476 26,500 -1,056 Descending Denver Center
Fri 05:38:24 PM 38.6347 -105.4581 308° West 353 406 26,000 -240 Descending Denver Center
Fri 05:39:26 PM 38.6936 -105.5514 309° West 309 356 26,000 -242 Level Denver Center
Fri 05:40:28 PM 38.7406 -105.6289 308° West 293 337 25,500 -823 Descending Denver Center
Fri 05:41:30 PM 38.7961 -105.7161 309° West 285 328 24,300 -1,016 Descending Denver Center
Fri 05:42:32 PM 38.8403 -105.7886 308° West 276 318 23,400 -871 Descending Denver Center
Fri 05:43:34 PM 38.8894 -105.8708 308° West 262 302 22,500 -677 Descending Denver Center
Fri 05:44:36 PM 38.9297 -105.9447 305° West 254 292 22,000 -242 Descending Denver Center
Fri 05:45:38 PM 38.9692 -106.0164 305° West 246 283 22,000  Level Denver Center
Fri 05:46:40 PM 39.0247 -106.0033 10° North 256 295 22,000  Level Denver Center
Fri 05:47:42 PM 38.9911 -105.9236 118° Southeast 265 305 22,000  Level Denver Center
Fri 05:48:45 PM 38.9394 -105.8556 134° Southeast 266 306 22,000  Level Denver Center
Fri 05:49:47 PM 38.8861 -105.7844 134° Southeast 260 299 22,000  Level Denver Center
Fri 05:50:49 PM 38.8303 -105.7078 133° Southeast 262 302 22,000  Level Denver Center
Fri 05:51:51 PM 38.7717 -105.7328 198° South 252 290 22,000  Level Denver Center
Fri 05:52:53 PM 38.7219 -105.8139 232° Southwest 262 302 22,000  Level Denver Center
Fri 05:53:55 PM 38.7606 -105.8706 311° West 233 268 22,000  Level Denver Center
Fri 05:54:57 PM 38.8250 -105.9147 332° Northwest 235 270 22,000  Level Denver Center
Fri 05:55:59 PM 38.8853 -105.9597 330° Northwest 236 272 22,000  Level Denver Center
Fri 05:57:01 PM 38.9428 -106.0011 331° Northwest 237 273 22,000  Level Denver Center
Fri 05:58:03 PM 39.0014 -106.0419 332° Northwest 239 275 22,000  Level Denver Center
Fri 05:59:06 PM 39.0594 -106.0836 331° Northwest 240 276 22,000  Level Denver Center
Fri 06:00:09 PM 39.1183 -106.1242 332° Northwest 241 277 22,000  Level Denver Center
Fri 06:01:11 PM 39.1450 -106.0558 63° Northeast 257 296 22,000  Level Denver Center
Fri 06:02:13 PM 39.0803 -106.0200 157° South 253 291 22,000  Level Denver Center
Fri 06:03:15 PM 39.0119 -105.9906 161° South 259 298 22,000  Level Denver Center
Fri 06:04:17 PM 38.9439 -105.9606 161° South 259 298 22,000  Level Denver Center
Fri 06:05:19 PM 38.8661 -105.9258 161° South 259 298 22,000  Level Denver Center
Fri 06:06:21 PM 38.7983 -105.9058 167° South 266 306 22,000  Level Denver Center
Fri 06:07:23 PM 38.7967 -105.9808 268° West 255 293 22,000  Level Denver Center
Fri 06:08:25 PM 38.8592 -105.9931 351° North 246 283 22,000  Level Denver Center
Fri 06:09:27 PM 38.9258 -106.0067 351° North 238 274 22,000  Level Denver Center
Fri 06:10:30 PM 38.9933 -106.0194 352° North 243 280 22,000  Level Denver Center
Fri 06:11:32 PM 39.0589 -106.0303 353° North 238 274 22,000  Level Denver Center
Fri 06:12:34 PM 39.0906 -105.9633 59° Northeast 255 293 22,000  Level Denver Center
Fri 06:13:36 PM 39.0219 -105.9386 164° South 257 296 22,000  Level Denver Center
Fri 06:14:38 PM 38.9519 -105.9231 170° South 257 296 22,000  Level Denver Center
Fri 06:15:40 PM 38.8803 -105.9081 171° South 259 298 22,000  Level Denver Center
Fri 06:16:42 PM 38.8017 -105.8911 170° South 262 302 22,000  Level Denver Center
Fri 06:17:44 PM 38.7408 -105.9117 195° South 263 303 22,000  Level Denver Center
Fri 06:18:46 PM 38.7850 -105.9686 315° West 240 276 22,000  Level Denver Center
Fri 06:19:48 PM 38.8408 -105.9314 27° Northeast 240 276 22,000  Level Denver Center
Fri 06:20:50 PM 38.8972 -105.9456 349° North 247 284 22,000 -240 Level Denver Center
Fri 06:21:53 PM 38.8836 -106.0347 259° West 255 293 21,500 -480 Descending Denver Center
Fri 06:22:55 PM 38.8661 -106.1383 258° West 263 303 21,000 -484 Descending Denver Center
Fri 06:23:57 PM 38.8550 -106.2158 260° West 252 290 20,500 -1,016 Descending Denver Center
Fri 06:24:59 PM 38.8386 -106.3247 259° West 256 295 18,900 -1,306 Descending Denver Center
Fri 06:26:01 PM 38.8236 -106.4172 258° West 262 302 17,800 -919 Descending Denver Center
Fri 06:27:03 PM 38.8636 -106.4814 309° West 250 288 17,000 -484 Descending Denver Center
Fri 06:28:05 PM 38.9208 -106.5192 333° Northwest 236 272 16,800 -97 Descending Denver Center
Fri 06:29:07 PM 38.9792 -106.5614 331° Northwest 233 268 16,800  Level Denver Center
Fri 06:30:09 PM 39.0383 -106.6019 332° Northwest 236 272 16,800 48 Level Denver Center
Fri 06:31:11 PM 39.0972 -106.6442 331° Northwest 232 267 16,900  Climbing Denver Center
Fri 06:32:13 PM 39.1503 -106.6833 330° Northwest 232 267 16,800 -48 Descending Denver Center
Fri 06:33:16 PM 39.2217 -106.7233 337° Northwest 233 268 16,800  Level Denver Center
Fri 06:34:18 PM 39.2842 -106.7481 343° North 234 269 16,800  Level Denver Center
Fri 06:35:20 PM 39.3458 -106.7728 343° North 234 269 16,800  Level Denver Center
Fri 06:36:22 PM 39.4081 -106.7975 343° North 235 270 16,800 145 Level Denver Center
Fri 06:37:24 PM 39.4742 -106.8231 343° North 231 266 17,100 -242 Climbing Denver Center
Fri 06:38:26 PM 39.5447 -106.8522 342° North 238 274 16,300 -484 Descending Denver Center
Fri 06:39:28 PM 39.5806 -106.9028 313° West 222 255 16,100 -97 Descending Denver Center
Fri 06:40:30 PM 39.5842 -106.9972 273° West 244 281 16,100  Level Denver Center
Fri 06:41:32 PM 39.5261 -107.0050 186° South 246 283 16,100 -387 Level Denver Center
Fri 06:42:34 PM 39.4569 -106.9758 162° South 231 266 15,300 -1,210 Descending Denver Center
Fri 06:43:36 PM 39.4053 -106.9606 167° South 210 242 13,600 -1,597 Descending Denver Center
Fri 06:44:38 PM 39.3556 -106.9344 158° South 201 231 12,000 -1,296 Descending Denver Center
Fri 06:45:41 PM 39.3156 -106.9136 158° South 173 199 10,900 -1,440 Descending Denver Center
Fri 06:46:43 PM 39.2686 -106.8906 159° South 159 183 9,000 -1,065 Descending Denver Center
Fri 06:47:45 PM 39.2303 -106.8731 161° South 157 181 8,700 -290 Descending Denver Center

Login

Don't have an account? Register now (free) for customized features, flight alerts, and more!